DLH48B EDDC-EDDH
Flight info
| Callsign | DLH48B |
|---|---|
| Flight time | 0h 47m |
| Altitude | 28000 |
| Route | OSKAN9E OSKAN M748 RARUP RARUP3D |
| Aircraft | A320/M-SDE3FGHIRWY/LB1 |
Departure
| Time | 2026-05-08 16:49 |
|---|---|
| Airport | Dresden Airport (EDDC) |
Arrival
| Time | 2026-05-08 17:37 |
|---|---|
| Airport | Hamburg Helmut Schmidt Airport (EDDH) |
| Time | Latitude | Longitude | Altitude | Speed | Heading |
|---|---|---|---|---|---|
| 2026-05-08 16:30 | 51.12761 | 13.76727 | 713 ft | 0 kts | 40° |
| 2026-05-08 16:42 | 51.12754 | 13.76716 | 715 ft | 4 kts | 40° |
| 2026-05-08 16:42 | 51.12733 | 13.76689 | 714 ft | 4 kts | 38° |
| 2026-05-08 16:42 | 51.12711 | 13.76664 | 716 ft | 4 kts | 26° |
| 2026-05-08 16:42 | 51.12688 | 13.76654 | 715 ft | 4 kts | 338° |
| 2026-05-08 16:43 | 51.12681 | 13.76660 | 715 ft | 0 kts | 311° |
| 2026-05-08 16:45 | 51.12683 | 13.76655 | 716 ft | 3 kts | 311° |
| 2026-05-08 16:46 | 51.12718 | 13.76592 | 712 ft | 12 kts | 311° |
| 2026-05-08 16:46 | 51.12782 | 13.76474 | 713 ft | 14 kts | 305° |
| 2026-05-08 16:46 | 51.12760 | 13.76354 | 712 ft | 11 kts | 228° |
| 2026-05-08 16:46 | 51.12706 | 13.76275 | 714 ft | 10 kts | 221° |
| 2026-05-08 16:47 | 51.12658 | 13.76209 | 711 ft | 8 kts | 221° |
| 2026-05-08 16:47 | 51.12593 | 13.76120 | 712 ft | 19 kts | 220° |
| 2026-05-08 16:47 | 51.12478 | 13.75963 | 714 ft | 21 kts | 221° |
| 2026-05-08 16:47 | 51.12378 | 13.75814 | 713 ft | 16 kts | 243° |
| 2026-05-08 16:48 | 51.12401 | 13.75644 | 714 ft | 18 kts | 292° |
| 2026-05-08 16:48 | 51.12453 | 13.75531 | 712 ft | 10 kts | 324° |
| 2026-05-08 16:48 | 51.12577 | 13.75611 | 713 ft | 29 kts | 52° |
| 2026-05-08 16:48 | 51.12724 | 13.75822 | 714 ft | 36 kts | 41° |
| 2026-05-08 16:49 | 51.13082 | 13.76318 | 714 ft | 102 kts | 41° |
| 2026-05-08 16:49 | 51.13768 | 13.77268 | 722 ft | 155 kts | 42° |
| 2026-05-08 16:49 | 51.14628 | 13.78446 | 1111 ft | 171 kts | 40° |
| 2026-05-08 16:49 | 51.15588 | 13.79709 | 1665 ft | 186 kts | 39° |
| 2026-05-08 16:50 | 51.16573 | 13.81057 | 2360 ft | 194 kts | 42° |
| 2026-05-08 16:50 | 51.17638 | 13.82556 | 2792 ft | 213 kts | 42° |
| 2026-05-08 16:50 | 51.18848 | 13.84128 | 3227 ft | 232 kts | 30° |
| 2026-05-08 16:50 | 51.20416 | 13.84788 | 3898 ft | 239 kts | 359° |
| 2026-05-08 16:51 | 51.22084 | 13.84508 | 4661 ft | 243 kts | 354° |
| 2026-05-08 16:51 | 51.23802 | 13.84207 | 5250 ft | 258 kts | 354° |
| 2026-05-08 16:51 | 51.25626 | 13.83906 | 5930 ft | 268 kts | 354° |
| 2026-05-08 16:51 | 51.27496 | 13.83599 | 6763 ft | 272 kts | 354° |
| 2026-05-08 16:52 | 51.29386 | 13.83282 | 7595 ft | 274 kts | 353° |
| 2026-05-08 16:52 | 51.31253 | 13.82619 | 8431 ft | 277 kts | 339° |
| 2026-05-08 16:52 | 51.32958 | 13.81181 | 9272 ft | 279 kts | 323° |
| 2026-05-08 16:52 | 51.34443 | 13.79163 | 10115 ft | 281 kts | 318° |
| 2026-05-08 16:53 | 51.37558 | 13.74772 | 10796 ft | 321 kts | 318° |
| 2026-05-08 16:53 | 51.39277 | 13.72361 | 11240 ft | 333 kts | 318° |
| 2026-05-08 16:53 | 51.41036 | 13.69897 | 11921 ft | 338 kts | 318° |
| 2026-05-08 16:54 | 51.42812 | 13.67400 | 12644 ft | 341 kts | 317° |
| 2026-05-08 16:54 | 51.44604 | 13.64872 | 13396 ft | 345 kts | 317° |
| 2026-05-08 16:54 | 51.46409 | 13.62317 | 14101 ft | 348 kts | 317° |
| 2026-05-08 16:54 | 51.48234 | 13.59735 | 14746 ft | 351 kts | 317° |
| 2026-05-08 16:55 | 51.50084 | 13.57117 | 15390 ft | 355 kts | 317° |
| 2026-05-08 16:55 | 51.51908 | 13.54534 | 15998 ft | 358 kts | 317° |
| 2026-05-08 16:55 | 51.53783 | 13.51879 | 16615 ft | 361 kts | 317° |
| 2026-05-08 16:55 | 51.55670 | 13.49205 | 17229 ft | 364 kts | 316° |
| 2026-05-08 16:56 | 51.57576 | 13.46496 | 17839 ft | 367 kts | 316° |
| 2026-05-08 16:56 | 51.59493 | 13.43767 | 18127 ft | 369 kts | 316° |
| 2026-05-08 16:56 | 51.61439 | 13.40992 | 18182 ft | 378 kts | 316° |
| 2026-05-08 16:56 | 51.63410 | 13.38170 | 18185 ft | 380 kts | 316° |
| 2026-05-08 16:57 | 51.65391 | 13.35333 | 18185 ft | 381 kts | 316° |
| 2026-05-08 16:57 | 51.67375 | 13.32499 | 18190 ft | 381 kts | 316° |
| 2026-05-08 16:57 | 51.69359 | 13.29665 | 18191 ft | 381 kts | 316° |
| 2026-05-08 16:57 | 51.71341 | 13.26829 | 18193 ft | 381 kts | 316° |
| 2026-05-08 16:58 | 51.73322 | 13.23984 | 18194 ft | 381 kts | 316° |
| 2026-05-08 16:58 | 51.75302 | 13.21129 | 18192 ft | 381 kts | 316° |
| 2026-05-08 16:58 | 51.77279 | 13.18275 | 18193 ft | 381 kts | 316° |
| 2026-05-08 16:58 | 51.79255 | 13.15421 | 18200 ft | 381 kts | 316° |
| 2026-05-08 16:59 | 51.81229 | 13.12567 | 18199 ft | 381 kts | 316° |
| 2026-05-08 16:59 | 51.83206 | 13.09712 | 18176 ft | 381 kts | 316° |
| 2026-05-08 16:59 | 51.85184 | 13.06851 | 18174 ft | 381 kts | 316° |
| 2026-05-08 16:59 | 51.87161 | 13.03992 | 18171 ft | 381 kts | 316° |
| 2026-05-08 17:00 | 51.89135 | 13.01131 | 18170 ft | 381 kts | 316° |
| 2026-05-08 17:00 | 51.91107 | 12.98266 | 18170 ft | 381 kts | 316° |
| 2026-05-08 17:00 | 51.93078 | 12.95399 | 18176 ft | 381 kts | 316° |
| 2026-05-08 17:00 | 51.95050 | 12.92528 | 18184 ft | 382 kts | 316° |
| 2026-05-08 17:01 | 51.97024 | 12.89646 | 18175 ft | 381 kts | 316° |
| 2026-05-08 17:01 | 51.98992 | 12.86769 | 18173 ft | 381 kts | 316° |
| 2026-05-08 17:01 | 52.00962 | 12.83890 | 18171 ft | 381 kts | 316° |
| 2026-05-08 17:01 | 52.02930 | 12.81012 | 18173 ft | 381 kts | 316° |
| 2026-05-08 17:02 | 52.04893 | 12.78136 | 18172 ft | 381 kts | 316° |
| 2026-05-08 17:02 | 52.06833 | 12.75286 | 18171 ft | 381 kts | 316° |
| 2026-05-08 17:02 | 52.08796 | 12.72399 | 18174 ft | 381 kts | 316° |
| 2026-05-08 17:02 | 52.10764 | 12.69503 | 18174 ft | 381 kts | 316° |
| 2026-05-08 17:03 | 52.12730 | 12.66609 | 18182 ft | 381 kts | 316° |
| 2026-05-08 17:03 | 52.14695 | 12.63717 | 18184 ft | 381 kts | 316° |
| 2026-05-08 17:03 | 52.16662 | 12.60817 | 18185 ft | 381 kts | 316° |
| 2026-05-08 17:03 | 52.18627 | 12.57911 | 18184 ft | 382 kts | 316° |
| 2026-05-08 17:04 | 52.20594 | 12.55001 | 18179 ft | 382 kts | 316° |
| 2026-05-08 17:04 | 52.22558 | 12.52088 | 18184 ft | 382 kts | 316° |
| 2026-05-08 17:04 | 52.24522 | 12.49174 | 18188 ft | 382 kts | 316° |
| 2026-05-08 17:04 | 52.26473 | 12.46236 | 18191 ft | 382 kts | 314° |
| 2026-05-08 17:05 | 52.28351 | 12.43176 | 18195 ft | 381 kts | 312° |
| 2026-05-08 17:05 | 52.30170 | 12.40025 | 18197 ft | 381 kts | 311° |
| 2026-05-08 17:05 | 52.31957 | 12.36833 | 18198 ft | 381 kts | 311° |
| 2026-05-08 17:05 | 52.33784 | 12.33695 | 18200 ft | 381 kts | 315° |
| 2026-05-08 17:06 | 52.35747 | 12.30781 | 18197 ft | 381 kts | 316° |
| 2026-05-08 17:06 | 52.37732 | 12.27895 | 18202 ft | 381 kts | 317° |
| 2026-05-08 17:06 | 52.39724 | 12.25032 | 18196 ft | 381 kts | 317° |
| 2026-05-08 17:06 | 52.41723 | 12.22175 | 18197 ft | 381 kts | 317° |
| 2026-05-08 17:07 | 52.43722 | 12.19313 | 18197 ft | 381 kts | 317° |
| 2026-05-08 17:07 | 52.45716 | 12.16446 | 18194 ft | 381 kts | 317° |
| 2026-05-08 17:07 | 52.47708 | 12.13574 | 18192 ft | 381 kts | 317° |
| 2026-05-08 17:07 | 52.49696 | 12.10699 | 18190 ft | 381 kts | 317° |
| 2026-05-08 17:08 | 52.51686 | 12.07813 | 18185 ft | 381 kts | 317° |
| 2026-05-08 17:08 | 52.53669 | 12.04933 | 18178 ft | 381 kts | 317° |
| 2026-05-08 17:08 | 52.55654 | 12.02047 | 18178 ft | 381 kts | 317° |
| 2026-05-08 17:08 | 52.57636 | 11.99163 | 18178 ft | 381 kts | 317° |
| 2026-05-08 17:09 | 52.59620 | 11.96268 | 18180 ft | 381 kts | 317° |
| 2026-05-08 17:09 | 52.61603 | 11.93370 | 18179 ft | 381 kts | 317° |
| 2026-05-08 17:09 | 52.63580 | 11.90484 | 18177 ft | 381 kts | 317° |
| 2026-05-08 17:09 | 52.65589 | 11.87725 | 18176 ft | 381 kts | 320° |
| 2026-05-08 17:10 | 52.67705 | 11.85011 | 18181 ft | 381 kts | 321° |
| 2026-05-08 17:10 | 52.69828 | 11.82389 | 18179 ft | 381 kts | 322° |
| 2026-05-08 17:10 | 52.71960 | 11.79783 | 18178 ft | 381 kts | 322° |
| 2026-05-08 17:10 | 52.74087 | 11.77164 | 18179 ft | 381 kts | 322° |
| 2026-05-08 17:11 | 52.76202 | 11.74529 | 18176 ft | 381 kts | 321° |
| 2026-05-08 17:11 | 52.78306 | 11.71872 | 18177 ft | 381 kts | 321° |
| 2026-05-08 17:11 | 52.80411 | 11.69188 | 18175 ft | 382 kts | 321° |
| 2026-05-08 17:11 | 52.82511 | 11.66500 | 18174 ft | 382 kts | 321° |
| 2026-05-08 17:12 | 52.84581 | 11.63848 | 18179 ft | 382 kts | 321° |
| 2026-05-08 17:12 | 52.86688 | 11.61173 | 18182 ft | 382 kts | 321° |
| 2026-05-08 17:12 | 52.88824 | 11.58552 | 18185 ft | 382 kts | 322° |
| 2026-05-08 17:12 | 52.90980 | 11.55970 | 18187 ft | 382 kts | 323° |
| 2026-05-08 17:13 | 52.93142 | 11.53407 | 18185 ft | 382 kts | 323° |
| 2026-05-08 17:13 | 52.95307 | 11.50842 | 18187 ft | 382 kts | 323° |
| 2026-05-08 17:13 | 52.97469 | 11.48271 | 18188 ft | 382 kts | 323° |
| 2026-05-08 17:13 | 52.99621 | 11.45697 | 18185 ft | 382 kts | 323° |
| 2026-05-08 17:14 | 53.01775 | 11.43108 | 18181 ft | 382 kts | 322° |
| 2026-05-08 17:14 | 53.03921 | 11.40518 | 18180 ft | 381 kts | 322° |
| 2026-05-08 17:14 | 53.06065 | 11.37919 | 18179 ft | 381 kts | 322° |
| 2026-05-08 17:14 | 53.08208 | 11.35317 | 18177 ft | 381 kts | 322° |
| 2026-05-08 17:15 | 53.10348 | 11.32713 | 18176 ft | 381 kts | 322° |
| 2026-05-08 17:15 | 53.12486 | 11.30112 | 18174 ft | 381 kts | 322° |
| 2026-05-08 17:15 | 53.14625 | 11.27509 | 18173 ft | 381 kts | 322° |
| 2026-05-08 17:15 | 53.16763 | 11.24905 | 18173 ft | 381 kts | 322° |
| 2026-05-08 17:16 | 53.18902 | 11.22299 | 18170 ft | 381 kts | 322° |
| 2026-05-08 17:16 | 53.21035 | 11.19695 | 18173 ft | 380 kts | 322° |
| 2026-05-08 17:16 | 53.23171 | 11.17085 | 18180 ft | 381 kts | 322° |
| 2026-05-08 17:16 | 53.25308 | 11.14474 | 18174 ft | 381 kts | 322° |
| 2026-05-08 17:17 | 53.27442 | 11.11858 | 18169 ft | 381 kts | 322° |
| 2026-05-08 17:17 | 53.29579 | 11.09234 | 18171 ft | 381 kts | 322° |
| 2026-05-08 17:17 | 53.31714 | 11.06617 | 18169 ft | 381 kts | 322° |
| 2026-05-08 17:17 | 53.33853 | 11.03993 | 18171 ft | 381 kts | 322° |
| 2026-05-08 17:18 | 53.35984 | 11.01349 | 18174 ft | 381 kts | 321° |
| 2026-05-08 17:18 | 53.38051 | 10.98636 | 18172 ft | 371 kts | 320° |
| 2026-05-08 17:18 | 53.39997 | 10.95941 | 18088 ft | 355 kts | 316° |
| 2026-05-08 17:18 | 53.41570 | 10.92938 | 17957 ft | 342 kts | 308° |
| 2026-05-08 17:19 | 53.43052 | 10.89866 | 17669 ft | 336 kts | 308° |
| 2026-05-08 17:19 | 53.44523 | 10.86814 | 17509 ft | 336 kts | 308° |
| 2026-05-08 17:19 | 53.45988 | 10.83769 | 17347 ft | 335 kts | 308° |
| 2026-05-08 17:19 | 53.47449 | 10.80723 | 17197 ft | 335 kts | 308° |
| 2026-05-08 17:20 | 53.48908 | 10.77675 | 17031 ft | 334 kts | 308° |
| 2026-05-08 17:20 | 53.50364 | 10.74629 | 16874 ft | 334 kts | 308° |
| 2026-05-08 17:20 | 53.51814 | 10.71594 | 16723 ft | 333 kts | 308° |
| 2026-05-08 17:20 | 53.53264 | 10.68554 | 16568 ft | 332 kts | 308° |
| 2026-05-08 17:21 | 53.54705 | 10.65522 | 16412 ft | 332 kts | 308° |
| 2026-05-08 17:21 | 53.56144 | 10.62494 | 16252 ft | 331 kts | 308° |
| 2026-05-08 17:21 | 53.57582 | 10.59471 | 16108 ft | 330 kts | 308° |
| 2026-05-08 17:21 | 53.59017 | 10.56454 | 15954 ft | 330 kts | 308° |
| 2026-05-08 17:22 | 53.60449 | 10.53434 | 15804 ft | 331 kts | 308° |
| 2026-05-08 17:22 | 53.61881 | 10.50407 | 15664 ft | 330 kts | 308° |
| 2026-05-08 17:22 | 53.63312 | 10.47380 | 15500 ft | 329 kts | 308° |
| 2026-05-08 17:22 | 53.64738 | 10.44365 | 15286 ft | 329 kts | 308° |
| 2026-05-08 17:23 | 53.66158 | 10.41353 | 15034 ft | 328 kts | 308° |
| 2026-05-08 17:23 | 53.67572 | 10.38348 | 14788 ft | 326 kts | 308° |
| 2026-05-08 17:23 | 53.68977 | 10.35364 | 14543 ft | 324 kts | 308° |
| 2026-05-08 17:23 | 53.70373 | 10.32392 | 14304 ft | 324 kts | 308° |
| 2026-05-08 17:24 | 53.71772 | 10.29408 | 14066 ft | 325 kts | 308° |
| 2026-05-08 17:24 | 53.72700 | 10.27423 | 13899 ft | 325 kts | 308° |
| 2026-05-08 17:24 | 53.74100 | 10.24430 | 13627 ft | 324 kts | 308° |
| 2026-05-08 17:24 | 53.75495 | 10.21450 | 13353 ft | 322 kts | 308° |
| 2026-05-08 17:25 | 53.76881 | 10.18489 | 13092 ft | 321 kts | 308° |
| 2026-05-08 17:25 | 53.78703 | 10.14584 | 12744 ft | 319 kts | 308° |
| 2026-05-08 17:25 | 53.80079 | 10.11632 | 12484 ft | 319 kts | 308° |
| 2026-05-08 17:25 | 53.81453 | 10.08682 | 12222 ft | 319 kts | 308° |
| 2026-05-08 17:26 | 53.82376 | 10.06696 | 12052 ft | 318 kts | 308° |
| 2026-05-08 17:26 | 53.83863 | 10.03968 | 11793 ft | 312 kts | 321° |
| 2026-05-08 17:26 | 53.85582 | 10.01789 | 11536 ft | 304 kts | 324° |
| 2026-05-08 17:26 | 53.87228 | 9.99791 | 11283 ft | 287 kts | 324° |
| 2026-05-08 17:27 | 53.88801 | 9.97885 | 11081 ft | 270 kts | 324° |
| 2026-05-08 17:27 | 53.90296 | 9.96070 | 10791 ft | 261 kts | 324° |
| 2026-05-08 17:27 | 53.91768 | 9.94276 | 10496 ft | 260 kts | 324° |
| 2026-05-08 17:27 | 53.93226 | 9.92495 | 10200 ft | 258 kts | 324° |
| 2026-05-08 17:28 | 53.94677 | 9.90722 | 9888 ft | 256 kts | 324° |
| 2026-05-08 17:28 | 53.96115 | 9.88958 | 9574 ft | 254 kts | 324° |
| 2026-05-08 17:28 | 53.97542 | 9.87199 | 9255 ft | 253 kts | 324° |
| 2026-05-08 17:28 | 53.98931 | 9.85372 | 8933 ft | 252 kts | 313° |
| 2026-05-08 17:29 | 53.99785 | 9.82828 | 8632 ft | 250 kts | 282° |
| 2026-05-08 17:29 | 53.99762 | 9.79923 | 8310 ft | 247 kts | 251° |
| 2026-05-08 17:29 | 53.98875 | 9.77475 | 7997 ft | 245 kts | 220° |
| 2026-05-08 17:29 | 53.97390 | 9.76168 | 7690 ft | 242 kts | 191° |
| 2026-05-08 17:30 | 53.95723 | 9.75732 | 7397 ft | 242 kts | 185° |
| 2026-05-08 17:30 | 53.94051 | 9.75444 | 7092 ft | 241 kts | 184° |
| 2026-05-08 17:30 | 53.92385 | 9.75164 | 6752 ft | 241 kts | 182° |
| 2026-05-08 17:30 | 53.90706 | 9.75537 | 6065 ft | 250 kts | 156° |
| 2026-05-08 17:31 | 53.89135 | 9.76843 | 5426 ft | 250 kts | 151° |
| 2026-05-08 17:31 | 53.87636 | 9.78183 | 5024 ft | 237 kts | 151° |
| 2026-05-08 17:31 | 53.86210 | 9.79440 | 4699 ft | 225 kts | 152° |
| 2026-05-08 17:31 | 53.84859 | 9.80622 | 4399 ft | 213 kts | 151° |
| 2026-05-08 17:32 | 53.83568 | 9.81750 | 4096 ft | 204 kts | 150° |
| 2026-05-08 17:32 | 53.82332 | 9.82830 | 3836 ft | 196 kts | 150° |
| 2026-05-08 17:32 | 53.81133 | 9.83877 | 3571 ft | 193 kts | 150° |
| 2026-05-08 17:32 | 53.79939 | 9.84920 | 3319 ft | 194 kts | 150° |
| 2026-05-08 17:33 | 53.78747 | 9.85959 | 3048 ft | 192 kts | 150° |
| 2026-05-08 17:33 | 53.77567 | 9.86987 | 2818 ft | 190 kts | 150° |
| 2026-05-08 17:33 | 53.76409 | 9.87996 | 2531 ft | 189 kts | 150° |
| 2026-05-08 17:33 | 53.75247 | 9.89008 | 2273 ft | 188 kts | 150° |
| 2026-05-08 17:34 | 53.74084 | 9.90019 | 2024 ft | 186 kts | 149° |
| 2026-05-08 17:34 | 53.72958 | 9.90995 | 1759 ft | 172 kts | 149° |
| 2026-05-08 17:34 | 53.71947 | 9.91873 | 1549 ft | 155 kts | 149° |
| 2026-05-08 17:34 | 53.71039 | 9.92661 | 1344 ft | 145 kts | 148° |
| 2026-05-08 17:35 | 53.70157 | 9.93427 | 1150 ft | 141 kts | 148° |
| 2026-05-08 17:35 | 53.69288 | 9.94183 | 957 ft | 141 kts | 148° |
| 2026-05-08 17:35 | 53.68412 | 9.94944 | 762 ft | 142 kts | 147° |
| 2026-05-08 17:35 | 53.67517 | 9.95720 | 578 ft | 143 kts | 146° |
| 2026-05-08 17:36 | 53.66636 | 9.96477 | 390 ft | 145 kts | 148° |
| 2026-05-08 17:36 | 53.65733 | 9.97264 | 192 ft | 143 kts | 148° |
| 2026-05-08 17:36 | 53.64879 | 9.98002 | 57 ft | 129 kts | 149° |
| 2026-05-08 17:36 | 53.64307 | 9.98500 | 54 ft | 50 kts | 152° |
| 2026-05-08 17:37 | 53.64062 | 9.98722 | 52 ft | 28 kts | 147° |
| 2026-05-08 17:37 | 53.63945 | 9.98927 | 50 ft | 24 kts | 128° |
| 2026-05-08 17:37 | 53.63881 | 9.99071 | 47 ft | 0 kts | 125° |
| 2026-05-08 17:37 | 53.63881 | 9.99072 | 47 ft | 0 kts | 125° |
| 2026-05-08 17:38 | 53.63871 | 9.99096 | 49 ft | 11 kts | 125° |
| 2026-05-08 17:38 | 53.63801 | 9.99259 | 48 ft | 19 kts | 126° |
| 2026-05-08 17:38 | 53.63726 | 9.99434 | 48 ft | 18 kts | 126° |
| 2026-05-08 17:38 | 53.63649 | 9.99614 | 49 ft | 20 kts | 126° |
| 2026-05-08 17:39 | 53.63568 | 9.99806 | 50 ft | 21 kts | 126° |
| 2026-05-08 17:39 | 53.63492 | 9.99978 | 50 ft | 10 kts | 127° |
| 2026-05-08 17:39 | 53.63486 | 9.99994 | 49 ft | 1 kts | 127° |
| 2026-05-08 17:39 | 53.63478 | 10.00011 | 49 ft | 2 kts | 127° |
| 2026-05-08 17:40 | 53.63456 | 10.00061 | 48 ft | 9 kts | 127° |
| 2026-05-08 17:40 | 53.63423 | 10.00160 | 47 ft | 10 kts | 113° |
| 2026-05-08 17:40 | 53.63410 | 10.00270 | 48 ft | 7 kts | 86° |
| 2026-05-08 17:40 | 53.63413 | 10.00326 | 48 ft | 2 kts | 84° |
| 2026-05-08 17:41 | 53.63414 | 10.00334 | 48 ft | 0 kts | 84° |